Hydetown, Pennsylvania
Current Conditions -  °F | °C
As of 4:35 AM on Saturday 20 Dec 2014 (Local Time) from KFKL Reporting Station
Overcast Overcast  
Wind Chill: 18°   Ceiling: 2100
Heat Index: 25°   Visibility: 10mi
Dew Point: 18°   Wind: 6mph
Humidity: 74%   Direction: 260°W
Pressure: 30.24"   Gusts: NA
Location:  41.65°N, 79.73°W
Report Text: KFKL 200935Z AUTO 26005KT 10SM OVC021 M04/M08 A3024 RMK AO1
Loading
Personal Weather Stations






























Interactive Weather Map New forecast layout! Learn more

10-Day Weather Forecast

Advertisements
Track Severe Weather on mobile